Toledo, OH

12:53 AM EDT on November 01, 2014 (GMT -0400)
University of Toledo | Change Station
CLOSE
Current Station
Personal Weather Station
Location: Toledo, OH
Elevation: 597 ft
Nearby Weather Stations

Elev 597 ft 41.66 °N, 83.62 °W | Updated 8 minutes ago

Snow
Snow
35.3 °F
Feels Like 29 °F
N
7.4
Wind Variable Wind from NW
Gusts 15.9 mph

Today
High -- | Low -- °F
--% Chance of Precip.
Yesterday
High -- | Low -- °F
Precip. -- in
8:06 AM 6:28 PM
Waxing Gibbous, 62% visible
Pressure 30.07 in
Visibility 8.0 miles
Clouds Mostly Cloudy 1400 ft
Overcast 2000 ft
Windchill 29 °F
Dew Point 34 °F
Humidity 93%
Rainfall -999.00 in
Snow Depth Not available.
UV 0 out of 12
Pollen .10 out of 12
Air Quality Not available.
Flu Activity Not available.
METAR KTDZ 010404Z AUTO 35017G28KT 8SM -SN BKN014 OVC020 02/00 A3007 RMK AO2 PK WND 36028/0356 UPE0359SNB0359 P0000 T00220000 TSNO

More Conditions Fewer Conditions

Pressure 30.07 in
Visibility 8.0 miles
Clouds Mostly Cloudy 1400 ft
Overcast 2000 ft
Windchill 29 °F
Dew Point 34 °F
Humidity 93%
Rainfall -999.00 in
Snow Depth Not available.
UV 0 out of 12
Pollen .10 out of 12
Air Quality Not available.
Flu Activity Not available.
METAR KTDZ 010404Z AUTO 35017G28KT 8SM -SN BKN014 OVC020 02/00 A3007 RMK AO2 PK WND 36028/0356 UPE0359SNB0359 P0000 T00220000 TSNO

More Conditions Fewer Conditions

10-Day Weather Forecast

Almanac

Astronomy

Nov. 01, 2014 Rise Set
Actual Time
Civil Twilight
Nautical Twilight
Astronomical Twilight
Moon
Length of Visible Light
Length of Day
Tomorrow will be .
, % of the Moon is Illuminated

Today's Extremes

State Highs State Lows

Community

WunderPhotos

Upload Photos

1,766,854 photos uploaded!

WunderBlogs® & News

Nearby

Air Quality

  Air Quality AQ Index Pollutant
Not available.

Snow Depth

Station Depth Elevation

Earthquake Activity

City Distance Mag. Time & Date
Minimum magnitude displayed is 2.5.

Coastal Water Temperatures

Place Temperature

Nearby Weather Stations